Time;durP1;ratioP1;P1;durP2;ratioP2;P2;SDS_P1;SDS_P2;PMS_P1;PMS_P2;Temp;Humidity;BMP_temperature;BMP_pressure;BME280_temperature;BME280_humidity;BME280_pressure;Samples;Min_cycle;Max_cycle;Signal;HPM_P1;HPM_P2
2023/03/10 00:01:24;;;;;;;5.38;3.53;;;;;;;3.71;100.00;98739.47;4989684;28;20066;-69
2023/03/10 00:03:51;;;;;;;6.07;3.92;;;;;;;3.69;100.00;98744.00;4971874;28;20366;-69
2023/03/10 00:06:23;;;;;;;5.33;3.70;;;;;;;3.72;100.00;98735.09;4990487;28;20501;-69
2023/03/10 00:08:50;;;;;;;6.72;3.83;;;;;;;3.72;100.00;98725.53;4990250;28;20629;-69
2023/03/10 00:11:17;;;;;;;6.63;3.80;;;;;;;3.75;100.00;98729.59;4993445;28;20063;-69
2023/03/10 00:13:44;;;;;;;7.80;4.13;;;;;;;3.73;100.00;98729.75;4988015;28;20050;-70
2023/03/10 00:16:25;;;;;;;7.63;3.97;;;;;;;3.74;100.00;98733.16;4978419;28;20161;-69
2023/03/10 00:18:53;;;;;;;5.65;3.70;;;;;;;3.72;100.00;98729.91;4989581;28;20053;-69
2023/03/10 00:21:26;;;;;;;6.03;3.67;;;;;;;3.72;100.00;98722.13;4967416;28;20526;-69
2023/03/10 00:23:53;;;;;;;7.68;4.00;;;;;;;3.64;100.00;98716.88;4987925;28;20068;-70
2023/03/10 00:26:20;;;;;;;6.10;4.00;;;;;;;3.70;100.00;98716.28;4987583;28;20050;-69
2023/03/10 00:28:48;;;;;;;5.68;3.55;;;;;;;3.70;100.00;98724.06;4987186;28;20068;-69
2023/03/10 00:31:21;;;;;;;5.80;3.85;;;;;;;3.71;100.00;98716.13;4989618;28;20064;-70
2023/03/10 00:33:48;;;;;;;5.60;4.00;;;;;;;3.68;100.00;98729.38;4986133;28;20058;-69
2023/03/10 00:36:21;;;;;;;5.82;3.60;;;;;;;3.76;100.00;98733.81;4987286;28;20050;-69
2023/03/10 00:38:50;;;;;;;7.40;3.63;;;;;;;3.71;100.00;98749.84;4986046;28;20141;-69
2023/03/10 00:41:19;;;;;;;5.10;3.55;;;;;;;3.76;100.00;98747.59;4985142;28;20058;-69
2023/03/10 00:43:46;;;;;;;7.25;4.40;;;;;;;3.72;100.00;98730.72;4983891;28;20054;-69
2023/03/10 00:46:13;;;;;;;4.85;3.40;;;;;;;3.66;100.00;98727.91;4991549;28;20132;-69
2023/03/10 00:48:40;;;;;;;5.57;3.83;;;;;;;3.65;100.00;98721.94;4987661;28;20495;-69
2023/03/10 00:51:11;;;;;;;6.43;4.32;;;;;;;3.61;100.00;98724.97;4990807;28;20058;-69
2023/03/10 00:53:39;;;;;;;5.53;3.85;;;;;;;3.58;100.00;98715.72;4988040;28;20559;-69
2023/03/10 00:56:27;;;;;;;5.38;3.80;;;;;;;3.66;100.00;98710.56;4989273;28;20598;-69
2023/03/10 00:58:57;;;;;;;5.63;3.78;;;;;;;3.72;100.00;98714.34;4987720;28;20058;-69
2023/03/10 01:01:33;;;;;;;5.57;4.07;;;;;;;3.73;100.00;98706.41;4989464;28;20065;-69
2023/03/10 01:04:05;;;;;;;5.57;3.70;;;;;;;3.74;100.00;98697.69;4986652;28;20126;-72
2023/03/10 01:06:34;;;;;;;4.63;3.50;;;;;;;3.70;100.00;98698.94;4984129;28;20089;-69
2023/03/10 01:09:05;;;;;;;5.75;3.95;;;;;;;3.79;100.00;98701.59;4989837;28;20491;-69
2023/03/10 01:11:33;;;;;;;5.25;3.60;;;;;;;3.81;100.00;98694.47;4989322;28;20148;-69
2023/03/10 01:14:02;;;;;;;5.90;3.92;;;;;;;3.84;100.00;98700.16;4986454;28;20644;-68
2023/03/10 01:16:29;;;;;;;6.25;3.95;;;;;;;3.86;100.00;98690.44;4987178;28;20061;-68
2023/03/10 01:18:57;;;;;;;6.50;3.70;;;;;;;3.91;100.00;98703.75;4982054;28;20517;-69
2023/03/10 01:21:27;;;;;;;5.13;3.80;;;;;;;3.93;100.00;98694.03;4987221;28;20058;-69
2023/03/10 01:23:54;;;;;;;4.95;3.85;;;;;;;3.96;100.00;98711.06;4982905;28;20571;-69
2023/03/10 01:26:22;;;;;;;5.50;3.75;;;;;;;3.95;100.00;98709.44;4973896;28;20059;-69
2023/03/10 01:28:48;;;;;;;5.25;4.15;;;;;;;3.96;100.00;98711.06;4977962;28;20058;-69
2023/03/10 01:31:16;;;;;;;5.18;3.72;;;;;;;3.98;100.00;98703.94;4985422;28;20045;-69
2023/03/10 01:33:44;;;;;;;7.97;3.78;;;;;;;4.02;100.00;98704.41;4985531;28;20050;-68
2023/03/10 01:36:20;;;;;;;5.90;4.05;;;;;;;4.06;100.00;98706.56;4978602;28;20410;-68
2023/03/10 01:38:47;;;;;;;6.97;4.40;;;;;;;4.07;100.00;98705.59;4983041;28;20055;-69
2023/03/10 01:41:14;;;;;;;5.00;3.63;;;;;;;4.05;100.00;98704.94;4974247;28;20695;-69
2023/03/10 01:43:47;;;;;;;5.78;3.95;;;;;;;4.11;100.00;98713.88;4981325;28;20042;-68
2023/03/10 01:46:37;;;;;;;6.25;4.15;;;;;;;4.16;100.00;98704.66;4980660;28;20418;-68
2023/03/10 01:49:14;;;;;;;6.05;4.28;;;;;;;4.15;100.00;98699.63;4988352;28;20050;-69
2023/03/10 01:51:44;;;;;;;5.25;4.03;;;;;;;4.14;100.00;98678.06;4981778;28;20065;-69
2023/03/10 01:54:17;;;;;;;5.00;3.95;;;;;;;4.16;100.00;98686.50;4988846;28;20101;-69
2023/03/10 01:56:45;;;;;;;5.53;3.80;;;;;;;4.12;100.00;98685.19;4983971;28;20775;-69
2023/03/10 01:59:12;;;;;;;5.30;3.70;;;;;;;4.13;100.00;98686.78;4982558;28;20046;-69
2023/03/10 02:01:39;;;;;;;5.82;3.95;;;;;;;4.13;100.00;98681.59;4991675;28;20050;-67
2023/03/10 02:04:12;;;;;;;5.13;3.72;;;;;;;4.15;100.00;98684.84;4980672;28;20073;-69
2023/03/10 02:06:41;;;;;;;5.28;3.70;;;;;;;4.15;100.00;98671.88;4989491;28;20042;-69
2023/03/10 02:09:08;;;;;;;;;;;;;;;4.19;100.00;98674.16;4974096;28;20487;-69
2023/03/10 02:11:36;;;;;;;5.47;3.90;;;;;;;4.19;100.00;98674.97;4980396;28;20025;-69
2023/03/10 02:14:05;;;;;;;5.50;3.97;;;;;;;4.21;100.00;98680.81;4984170;28;20046;-69
2023/03/10 02:16:33;;;;;;;5.82;4.13;;;;;;;4.19;100.00;98674.97;4979693;28;20385;-68
2023/03/10 02:19:02;;;;;;;4.30;3.28;;;;;;;4.19;100.00;98674.16;4985620;28;20061;-69
2023/03/10 02:21:41;;;;;;;5.68;4.10;;;;;;;4.22;100.00;98668.66;4986024;28;20518;-69
2023/03/10 02:24:18;;;;;;;5.75;3.95;;;;;;;4.15;100.00;98671.88;4987769;28;20053;-69
2023/03/10 02:26:53;;;;;;;4.90;3.65;;;;;;;4.21;100.00;98683.41;4990538;28;20058;-69
2023/03/10 02:29:29;;;;;;;5.93;3.75;;;;;;;4.18;100.00;98686.34;4994583;28;20050;-69
2023/03/10 02:31:57;;;;;;;6.20;4.28;;;;;;;4.14;100.00;98675.44;4994027;28;20062;-69
2023/03/10 02:34:25;;;;;;;6.07;4.37;;;;;;;4.10;100.00;98658.59;4995203;28;20066;-68
2023/03/10 02:36:52;;;;;;;6.45;4.70;;;;;;;4.12;100.00;98676.59;4991686;28;20058;-69
2023/03/10 02:39:18;;;;;;;5.60;4.18;;;;;;;4.13;100.00;98673.00;4986183;28;20042;-68
2023/03/10 02:41:46;;;;;;;6.28;4.55;;;;;;;4.01;100.00;98669.88;4997053;28;20054;-69
2023/03/10 02:44:17;;;;;;;7.60;4.72;;;;;;;4.08;100.00;98670.09;4993113;28;20057;-69
2023/03/10 02:46:44;;;;;;;6.10;4.57;;;;;;;4.12;100.00;98667.00;4996846;28;20050;-69
2023/03/10 02:49:11;;;;;;;6.97;4.65;;;;;;;4.11;100.00;98672.34;4992606;28;20058;-69
2023/03/10 02:51:46;;;;;;;8.82;5.07;;;;;;;4.12;100.00;98661.03;4993148;28;20431;-68
2023/03/10 02:54:13;;;;;;;7.38;5.18;;;;;;;4.15;100.00;98668.47;4999871;28;20046;-69
2023/03/10 02:56:42;;;;;;;7.28;5.18;;;;;;;4.09;100.00;98659.53;4993285;28;20133;-69
2023/03/10 02:59:09;;;;;;;7.80;5.75;;;;;;;4.04;100.00;98654.03;4989608;28;20085;-69
2023/03/10 03:01:37;;;;;;;8.88;5.63;;;;;;;4.07;100.00;98653.69;4994854;28;20058;-69
2023/03/10 03:04:04;;;;;;;9.40;6.50;;;;;;;4.09;100.00;98654.34;5014472;28;20054;-69
2023/03/10 03:06:30;;;;;;;7.43;5.35;;;;;;;4.10;100.00;98660.38;5012655;28;20114;-69
2023/03/10 03:08:57;;;;;;;8.93;5.70;;;;;;;4.04;100.00;98656.63;4997585;28;20411;-69
2023/03/10 03:11:24;;;;;;;7.68;5.53;;;;;;;4.11;100.00;98664.56;4994214;28;20053;-69
2023/03/10 03:13:51;;;;;;;7.43;5.22;;;;;;;4.08;100.00;98646.75;4992016;28;20050;-69
2023/03/10 03:16:17;;;;;;;7.28;5.13;;;;;;;4.09;100.00;98645.75;4994561;28;20605;-69
2023/03/10 03:18:44;;;;;;;8.70;5.80;;;;;;;4.12;100.00;98648.06;4986809;28;20114;-69
2023/03/10 03:21:14;;;;;;;6.75;5.20;;;;;;;4.12;100.00;98654.03;4991213;28;20050;-69
2023/03/10 03:23:42;;;;;;;7.50;5.15;;;;;;;4.14;100.00;98646.91;4984802;28;20054;-70
2023/03/10 03:26:18;;;;;;;7.07;4.75;;;;;;;4.15;100.00;98652.91;4987100;28;20050;-69
2023/03/10 03:28:44;;;;;;;7.80;5.07;;;;;;;4.15;100.00;98647.72;4983214;28;20057;-69
2023/03/10 03:31:19;;;;;;;7.57;5.25;;;;;;;4.16;100.00;98644.97;4981380;28;20042;-69
2023/03/10 03:33:45;;;;;;;7.68;5.30;;;;;;;4.19;100.00;98640.44;4986166;28;20050;-69
2023/03/10 03:36:13;;;;;;;6.03;4.18;;;;;;;4.21;100.00;98636.69;4978301;28;20050;-70
2023/03/10 03:38:40;;;;;;;7.88;6.00;;;;;;;4.22;100.00;98640.94;4990014;28;20050;-69
2023/03/10 03:41:07;;;;;;;8.60;5.45;;;;;;;4.20;100.00;98637.69;4979989;28;20050;-69
2023/03/10 03:43:35;;;;;;;8.10;5.68;;;;;;;4.20;100.00;98637.69;4998686;28;20050;-69
2023/03/10 03:46:03;;;;;;;5.93;3.85;;;;;;;4.20;100.00;98640.28;4989566;28;20150;-69
2023/03/10 03:48:30;;;;;;;6.85;4.90;;;;;;;4.16;100.00;98632.00;4994131;28;20096;-69
2023/03/10 03:50:56;;;;;;;7.57;5.00;;;;;;;4.12;100.00;98633.28;4990325;28;20069;-69
2023/03/10 03:53:23;;;;;;;7.32;4.72;;;;;;;4.12;100.00;98627.28;4990766;28;20054;-69
2023/03/10 03:55:51;;;;;;;7.18;4.78;;;;;;;4.07;100.00;98621.75;4997684;28;20096;-69
2023/03/10 03:58:18;;;;;;;8.07;5.15;;;;;;;4.12;100.00;98630.69;4996673;28;20790;-71
2023/03/10 04:00:45;;;;;;;7.72;4.63;;;;;;;4.13;100.00;98628.91;4994885;28;20421;-75
2023/03/10 04:03:11;;;;;;;8.85;5.00;;;;;;;4.09;100.00;98630.19;4992269;28;20062;-74
2023/03/10 04:05:38;;;;;;;9.68;5.18;;;;;;;4.08;100.00;98613.00;4993443;28;20070;-74
2023/03/10 04:08:06;;;;;;;7.45;4.97;;;;;;;4.07;100.00;98621.75;4989910;28;20054;-76
2023/03/10 04:10:32;;;;;;;6.20;4.40;;;;;;;4.02;100.00;98631.78;4988054;28;20050;-76
2023/03/10 04:12:59;;;;;;;7.43;4.75;;;;;;;4.04;100.00;98628.09;4980753;28;20057;-76
2023/03/10 04:15:25;;;;;;;7.47;4.97;;;;;;;4.01;100.00;98619.78;4984655;28;20046;-74
2023/03/10 04:17:52;;;;;;;6.80;4.55;;;;;;;4.02;100.00;98618.81;4989756;28;20066;-74
2023/03/10 04:20:18;;;;;;;7.68;5.30;;;;;;;4.00;100.00;98615.56;4988327;28;20516;-75
2023/03/10 04:22:45;;;;;;;9.38;4.70;;;;;;;4.02;100.00;98621.41;5002562;28;20075;-74
2023/03/10 04:25:12;;;;;;;6.78;4.43;;;;;;;4.01;100.00;98628.38;4999244;28;20046;-74
2023/03/10 04:27:38;;;;;;;5.80;4.45;;;;;;;4.04;100.00;98625.50;4984084;28;20050;-73
2023/03/10 04:30:06;;;;;;;6.95;4.43;;;;;;;4.07;100.00;98626.94;4998648;28;20045;-73
2023/03/10 04:32:32;;;;;;;7.13;4.63;;;;;;;4.07;100.00;98625.16;4982217;28;20073;-73
2023/03/10 04:34:59;;;;;;;7.10;4.68;;;;;;;4.10;100.00;98621.44;5002217;28;20045;-72
2023/03/10 04:37:26;;;;;;;6.25;4.13;;;;;;;4.11;100.00;98626.47;4996948;28;20050;-73
2023/03/10 04:39:52;;;;;;;6.88;4.53;;;;;;;4.10;100.00;98627.44;5002764;28;20088;-73
2023/03/10 04:42:19;;;;;;;8.30;4.88;;;;;;;4.11;100.00;98623.06;4993057;28;20841;-73
2023/03/10 04:44:45;;;;;;;7.40;4.63;;;;;;;4.12;100.00;98630.69;4986090;28;20046;-72
2023/03/10 04:47:12;;;;;;;6.93;4.45;;;;;;;4.08;100.00;98636.38;4994480;28;20153;-72
2023/03/10 04:49:38;;;;;;;7.03;4.28;;;;;;;4.12;100.00;98633.28;4993074;28;20563;-72
2023/03/10 04:52:05;;;;;;;7.38;4.55;;;;;;;4.12;100.00;98630.69;5003466;28;20060;-72
2023/03/10 04:54:32;;;;;;;7.88;4.95;;;;;;;4.07;100.00;98619.16;4997330;28;20743;-71
2023/03/10 04:56:59;;;;;;;7.20;4.40;;;;;;;4.05;100.00;98618.50;4983092;28;20085;-72
2023/03/10 04:59:25;;;;;;;7.05;4.40;;;;;;;4.05;100.00;98615.91;5000557;28;20056;-73
2023/03/10 05:01:52;;;;;;;7.03;4.72;;;;;;;4.02;100.00;98601.50;5001753;28;20064;-72
2023/03/10 05:04:19;;;;;;;7.15;4.32;;;;;;;4.00;100.00;98613.81;5008243;28;20442;-72
2023/03/10 05:06:49;;;;;;;6.25;4.10;;;;;;;3.98;100.00;98607.97;4990894;28;20045;-71
2023/03/10 05:09:16;;;;;;;6.97;4.40;;;;;;;3.99;100.00;98604.38;5001072;28;20128;-73
2023/03/10 05:11:42;;;;;;;6.38;4.10;;;;;;;3.93;100.00;98611.00;4989867;28;20065;-72
2023/03/10 05:14:11;;;;;;;6.97;4.35;;;;;;;3.90;100.00;98602.72;4999408;28;20046;-71
2023/03/10 05:16:37;;;;;;;;;;;;;;;3.93;100.00;98597.25;4993085;28;20046;-72
2023/03/10 05:19:04;;;;;;;5.80;3.67;;;;;;;3.90;100.00;98602.72;4994018;28;19932;-71
2023/03/10 05:21:30;;;;;;;6.57;3.78;;;;;;;3.89;100.00;98603.72;4997241;28;20076;-72
2023/03/10 05:23:57;;;;;;;5.97;3.97;;;;;;;3.88;100.00;98600.31;4989371;28;20046;-75
2023/03/10 05:26:24;;;;;;;8.55;3.70;;;;;;;3.84;100.00;98606.78;4999672;28;20101;-75
2023/03/10 05:28:51;;;;;;;6.90;3.70;;;;;;;3.80;100.00;98604.66;4996902;28;20442;-72
2023/03/10 05:31:25;;;;;;;5.25;3.25;;;;;;;3.83;100.00;98596.56;4989952;28;20081;-75
2023/03/10 05:33:52;;;;;;;4.47;3.00;;;;;;;3.85;100.00;98602.41;4995966;28;20053;-72
2023/03/10 05:36:20;;;;;;;5.57;3.10;;;;;;;3.83;100.00;98605.16;4986550;28;20054;-74
2023/03/10 05:38:47;;;;;;;3.28;2.20;;;;;;;3.84;100.00;98603.38;5001578;28;20145;-75
2023/03/10 05:41:13;;;;;;;3.67;2.28;;;;;;;3.81;100.00;98595.91;4995508;28;20090;-73
2023/03/10 05:43:40;;;;;;;4.43;2.85;;;;;;;3.81;100.00;98612.28;4995166;28;20061;-74
2023/03/10 05:46:07;;;;;;;3.72;2.17;;;;;;;3.87;100.00;98610.84;4996074;28;20065;-74
2023/03/10 05:48:34;;;;;;;3.90;2.60;;;;;;;3.85;100.00;98620.56;4983186;28;20069;-72
2023/03/10 05:51:07;;;;;;;3.80;2.33;;;;;;;3.84;100.00;98618.91;4996528;28;20050;-74
2023/03/10 05:53:35;;;;;;;6.65;2.78;;;;;;;3.85;100.00;98621.38;4983078;28;20053;-73
2023/03/10 05:56:10;;;;;;;3.80;2.42;;;;;;;3.83;100.00;98628.50;4991681;28;20049;-74
2023/03/10 05:58:37;;;;;;;3.60;2.38;;;;;;;3.83;100.00;98638.06;4981615;28;20049;-75
2023/03/10 06:01:05;;;;;;;3.47;2.28;;;;;;;3.85;100.00;98636.94;4999766;28;20082;-74
2023/03/10 06:03:32;;;;;;;4.55;2.65;;;;;;;3.80;100.00;98628.00;4993566;28;20057;-74
2023/03/10 06:05:59;;;;;;;3.63;2.30;;;;;;;3.86;100.00;98630.78;4979090;28;20047;-74
2023/03/10 06:08:26;;;;;;;4.88;2.63;;;;;;;3.86;100.00;98642.91;4984755;28;20447;-75
2023/03/10 06:10:53;;;;;;;4.63;2.88;;;;;;;3.83;100.00;98632.88;4999965;28;20084;-73
2023/03/10 06:13:20;;;;;;;4.47;2.42;;;;;;;3.86;100.00;98633.38;4996109;28;20058;-74
2023/03/10 06:15:53;;;;;;;3.97;2.30;;;;;;;3.93;100.00;98630.97;4989310;28;20106;-75
2023/03/10 06:18:20;;;;;;;3.65;2.17;;;;;;;3.91;100.00;98633.69;4994583;28;20109;-73
2023/03/10 06:20:48;;;;;;;3.97;2.47;;;;;;;3.92;100.00;98624.13;4974898;28;20051;-74
2023/03/10 06:23:15;;;;;;;5.47;2.10;;;;;;;3.98;100.00;98620.94;4996817;28;20058;-74
2023/03/10 06:25:42;;;;;;;4.50;2.30;;;;;;;3.89;100.00;98621.88;5004294;28;20506;-72
2023/03/10 06:28:09;;;;;;;3.38;1.98;;;;;;;3.88;100.00;98617.63;4982647;28;20064;-74
2023/03/10 06:30:38;;;;;;;3.50;1.95;;;;;;;3.85;100.00;98623.97;5006232;28;20054;-71
2023/03/10 06:33:05;;;;;;;3.03;1.90;;;;;;;3.86;100.00;98627.34;4997596;28;20065;-73
2023/03/10 06:35:31;;;;;;;2.75;1.60;;;;;;;3.85;100.00;98620.56;5010243;28;20115;-73
2023/03/10 06:38:01;;;;;;;2.40;1.50;;;;;;;3.91;100.00;98622.53;4987348;28;20046;-74
2023/03/10 06:40:32;;;;;;;3.45;1.98;;;;;;;3.94;100.00;98630.00;4995100;28;20050;-71
2023/03/10 06:42:59;;;;;;;4.93;2.80;;;;;;;3.95;100.00;98635.00;4998782;28;20042;-72
2023/03/10 06:45:27;;;;;;;3.45;2.20;;;;;;;3.95;100.00;98635.00;5002489;28;20050;-72
2023/03/10 06:47:54;;;;;;;2.70;1.52;;;;;;;3.93;100.00;98636.94;4985281;28;20050;-72
2023/03/10 06:50:20;;;;;;;3.47;1.85;;;;;;;3.96;100.00;98635.84;4991068;28;20082;-72
2023/03/10 06:52:47;;;;;;;2.63;1.58;;;;;;;3.99;100.00;98637.31;5003423;28;20551;-73
2023/03/10 06:55:16;;;;;;;3.08;1.90;;;;;;;3.96;100.00;98648.81;5002491;28;20054;-72
2023/03/10 06:57:43;;;;;;;3.75;1.90;;;;;;;3.98;100.00;98631.31;5008875;28;20692;-72
2023/03/10 07:00:14;;;;;;;4.30;1.83;;;;;;;3.99;100.00;98637.31;4996500;28;20105;-70
2023/03/10 07:02:41;;;;;;;3.47;2.20;;;;;;;3.95;100.00;98637.59;4994806;28;20481;-70
2023/03/10 07:05:13;;;;;;;3.30;2.22;;;;;;;3.99;100.00;98635.50;5009197;28;20101;-71
2023/03/10 07:07:40;;;;;;;3.08;2.08;;;;;;;3.93;100.00;98636.16;4997350;28;20050;-73
2023/03/10 07:10:07;;;;;;;2.63;1.70;;;;;;;4.00;100.00;98638.91;5011662;28;20181;-73
2023/03/10 07:12:34;;;;;;;4.63;2.25;;;;;;;3.99;100.00;98639.91;4988775;28;20084;-72
2023/03/10 07:15:00;;;;;;;2.80;1.88;;;;;;;4.02;100.00;98637.81;4983076;28;20046;-73
2023/03/10 07:17:27;;;;;;;3.10;1.90;;;;;;;4.04;100.00;98638.47;4991206;28;20054;-73
2023/03/10 07:19:53;;;;;;;3.38;2.10;;;;;;;4.02;100.00;98634.38;4999111;28;20050;-70
2023/03/10 07:22:20;;;;;;;3.45;2.05;;;;;;;4.04;100.00;98643.66;4996549;28;20057;-73
2023/03/10 07:24:46;;;;;;;3.50;2.40;;;;;;;4.02;100.00;98642.16;4992444;28;20070;-71
2023/03/10 07:27:13;;;;;;;2.90;1.92;;;;;;;3.97;100.00;98643.44;5005767;28;20054;-71
2023/03/10 07:29:39;;;;;;;3.72;2.35;;;;;;;3.98;100.00;98649.47;4994188;28;20057;-72
2023/03/10 07:32:05;;;;;;;3.33;1.98;;;;;;;4.03;100.00;98649.78;5000941;28;20108;-71
2023/03/10 07:34:32;;;;;;;3.08;2.03;;;;;;;4.02;100.00;98658.56;4994046;28;20043;-71
2023/03/10 07:36:58;;;;;;;3.33;2.20;;;;;;;4.02;100.00;98655.13;4993276;28;20042;-73
2023/03/10 07:39:25;;;;;;;3.60;2.55;;;;;;;4.03;100.00;98652.38;4992773;28;20061;-71
2023/03/10 07:41:52;;;;;;;4.88;2.97;;;;;;;4.06;100.00;98669.44;4993691;28;20092;-72
2023/03/10 07:44:18;;;;;;;3.35;2.42;;;;;;;4.07;100.00;98665.88;4996138;28;20199;-72
2023/03/10 07:46:45;;;;;;;5.47;2.92;;;;;;;4.06;100.00;98662.47;4994625;28;20049;-73
2023/03/10 07:49:11;;;;;;;4.43;2.60;;;;;;;4.08;100.00;98664.91;4995799;28;20054;-73
2023/03/10 07:51:43;;;;;;;;;;;;;;;4.12;100.00;98659.22;4989383;28;20058;-73
2023/03/10 07:54:12;;;;;;;4.97;2.67;;;;;;;4.09;100.00;98672.50;4984949;28;19929;-72
2023/03/10 07:56:39;;;;;;;4.32;2.45;;;;;;;4.08;100.00;98665.72;4996015;28;20451;-71
2023/03/10 07:59:05;;;;;;;4.80;3.10;;;;;;;4.11;100.00;98665.38;4988309;28;20065;-73
2023/03/10 08:01:32;;;;;;;4.50;2.72;;;;;;;4.10;100.00;98676.75;4993740;28;20125;-74
2023/03/10 08:03:58;;;;;;;6.40;3.28;;;;;;;4.15;100.00;98676.25;4988245;28;20141;-74
2023/03/10 08:06:27;;;;;;;4.63;3.15;;;;;;;4.19;100.00;98681.94;4961114;28;20178;-73
2023/03/10 08:08:54;;;;;;;;;;;;;;;4.24;100.00;98682.31;4981217;28;20057;-72
2023/03/10 08:11:26;;;;;;;4.18;3.03;;;;;;;4.22;100.00;98679.84;4996552;28;19931;-73
2023/03/10 08:13:53;;;;;;;4.85;3.10;;;;;;;4.21;100.00;98680.00;4994126;28;20541;-74
2023/03/10 08:16:22;;;;;;;5.30;2.75;;;;;;;4.20;100.00;98676.59;4984775;28;20089;-73
2023/03/10 08:18:52;;;;;;;7.43;3.00;;;;;;;4.20;100.00;98674.00;4993475;28;20046;-72
2023/03/10 08:21:22;;;;;;;5.85;3.55;;;;;;;4.14;100.00;98670.25;4971349;28;20126;-74
2023/03/10 08:23:50;;;;;;;4.32;2.80;;;;;;;4.13;100.00;98683.38;4989680;28;20042;-75
2023/03/10 08:26:17;;;;;;;6.95;3.05;;;;;;;4.08;100.00;98676.09;4992146;28;20064;-74
2023/03/10 08:28:44;;;;;;;5.28;3.38;;;;;;;4.08;100.00;98676.09;4990111;28;20533;-72
2023/03/10 08:31:14;;;;;;;4.78;3.35;;;;;;;4.15;100.00;98678.84;4990717;28;20057;-71
2023/03/10 08:33:42;;;;;;;6.10;3.40;;;;;;;4.13;100.00;98681.59;4986616;28;20046;-71
2023/03/10 08:36:18;;;;;;;7.10;3.70;;;;;;;4.15;100.00;98677.06;4985243;28;20119;-72
2023/03/10 08:38:45;;;;;;;6.30;4.05;;;;;;;4.20;100.00;98679.22;4987144;28;20137;-73
2023/03/10 08:41:18;;;;;;;5.95;3.67;;;;;;;4.27;100.00;98681.97;4990777;28;20165;-73
2023/03/10 08:43:46;;;;;;;5.43;3.40;;;;;;;4.33;100.00;98681.34;4983009;28;20114;-72
2023/03/10 08:46:16;;;;;;;6.18;3.40;;;;;;;4.41;100.00;98680.53;4996233;28;20101;-72
2023/03/10 08:48:43;;;;;;;5.68;3.55;;;;;;;4.41;100.00;98683.97;4986561;28;20819;-73
2023/03/10 08:51:10;;;;;;;4.80;3.10;;;;;;;4.49;100.00;98678.78;4989864;28;20042;-71
2023/03/10 08:53:40;;;;;;;6.32;3.00;;;;;;;4.48;100.00;98676.34;5003635;28;20065;-73
2023/03/10 08:56:07;;;;;;;5.50;2.80;;;;;;;4.51;100.00;98686.44;4999776;28;20126;-71
2023/03/10 08:58:33;;;;;;;4.22;2.67;;;;;;;4.55;100.00;98695.50;4995791;28;20050;-71
2023/03/10 09:01:00;;;;;;;4.53;2.28;;;;;;;4.55;100.00;98690.31;4989690;28;20664;-73
2023/03/10 09:03:26;;;;;;;4.05;2.67;;;;;;;4.59;100.00;98691.63;4989299;28;20115;-71
2023/03/10 09:05:57;;;;;;;3.67;2.35;;;;;;;4.62;100.00;98693.88;4984109;28;20054;-71
2023/03/10 09:08:23;;;;;;;4.00;2.70;;;;;;;4.58;100.00;98687.38;4994399;28;20064;-71
2023/03/10 09:10:53;;;;;;;4.93;2.60;;;;;;;4.56;100.00;98697.94;4997817;28;20050;-73
2023/03/10 09:13:19;;;;;;;4.18;2.45;;;;;;;4.58;100.00;98695.19;4982608;28;20054;-73
2023/03/10 09:15:46;;;;;;;4.55;2.50;;;;;;;4.58;100.00;98694.38;4986538;28;20157;-72
2023/03/10 09:18:14;;;;;;;4.25;2.47;;;;;;;4.58;100.00;98699.56;4984590;28;20046;-72
2023/03/10 09:20:42;;;;;;;5.30;2.40;;;;;;;4.66;100.00;98687.41;4988593;28;20528;-72
2023/03/10 09:23:11;;;;;;;4.38;2.60;;;;;;;4.64;100.00;98688.53;4988341;28;20050;-75
2023/03/10 09:25:40;;;;;;;;;;;;;;;4.58;100.00;98695.19;4995518;28;20050;-75
2023/03/10 09:28:09;;;;;;;4.78;2.90;;;;;;;4.54;100.00;98705.06;4993896;28;20488;-73
2023/03/10 09:30:38;;;;;;;3.30;2.25;;;;;;;4.57;100.00;98696.16;4986212;28;20060;-72
2023/03/10 09:33:07;;;;;;;5.20;2.70;;;;;;;4.62;100.00;98691.28;5004283;28;20055;-73
2023/03/10 09:35:34;;;;;;;3.88;2.30;;;;;;;4.64;100.00;98689.34;4993273;28;20058;-72
2023/03/10 09:38:07;;;;;;;3.72;2.30;;;;;;;4.63;100.00;98686.94;5000777;28;20058;-74
2023/03/10 09:40:35;;;;;;;2.70;2.03;;;;;;;4.66;100.00;98696.97;4991493;28;20145;-71
2023/03/10 09:43:11;;;;;;;5.57;3.05;;;;;;;4.71;100.00;98692.13;4989668;28;20042;-72
2023/03/10 09:46:19;;;;;;;4.03;2.33;;;;;;;4.79;100.00;98696.53;4988941;28;20046;-71
2023/03/10 09:49:03;;;;;;;;;;;;;;;4.82;100.00;98686.63;4994514;28;20089;-73
2023/03/10 09:51:30;;;;;;;3.60;2.28;;;;;;;4.87;100.00;98686.13;5011358;28;19925;-72
2023/03/10 09:54:15;;;;;;;4.07;2.63;;;;;;;4.87;100.00;98684.34;4993165;28;20074;-71
2023/03/10 09:56:41;;;;;;;4.88;2.20;;;;;;;4.88;100.00;98698.97;5001131;28;20046;-71
2023/03/10 09:59:15;;;;;;;3.72;2.35;;;;;;;4.88;100.00;98698.97;4999965;28;20054;-74
2023/03/10 10:01:47;;;;;;;4.13;2.70;;;;;;;4.94;100.00;98695.72;5003423;28;20097;-71
2023/03/10 10:04:22;;;;;;;3.88;2.85;;;;;;;4.96;100.00;98695.56;5002332;28;20052;-71
2023/03/10 10:06:49;;;;;;;3.40;2.15;;;;;;;4.99;100.00;98712.59;5003078;28;20035;-72
2023/03/10 10:09:41;;;;;;;3.53;2.90;;;;;;;5.01;100.00;98710.66;5003256;28;20042;-72
2023/03/10 10:12:11;;;;;;;4.82;2.63;;;;;;;5.00;100.00;98712.44;5003727;28;20459;-72
2023/03/10 10:14:38;;;;;;;5.70;2.35;;;;;;;4.98;100.00;98708.38;4998319;28;20066;-71
2023/03/10 10:17:28;;;;;;;3.72;2.35;;;;;;;5.00;100.00;98707.25;4996941;28;20058;-71
2023/03/10 10:19:56;;;;;;;3.95;2.30;;;;;;;5.02;100.00;98714.84;4999417;28;20616;-72
2023/03/10 10:22:27;;;;;;;3.65;2.30;;;;;;;5.07;100.00;98712.59;4989078;28;20060;-71
2023/03/10 10:25:12;;;;;;;4.40;2.38;;;;;;;5.07;100.00;98708.19;5011837;28;20586;-73
2023/03/10 10:27:41;;;;;;;4.25;1.65;;;;;;;5.09;100.00;98708.84;4991591;28;20057;-70
2023/03/10 10:30:31;;;;;;;2.05;1.70;;;;;;;5.12;100.00;98708.53;5002618;28;20065;-73
2023/03/10 10:33:10;;;;;;;2.97;2.10;;;;;;;5.12;100.00;98711.13;5005330;28;20191;-71
2023/03/10 10:35:39;;;;;;;4.57;2.08;;;;;;;5.20;100.00;98712.91;5011102;28;20042;-71
2023/03/10 10:38:08;;;;;;;3.10;2.03;;;;;;;5.26;100.00;98720.06;5010716;28;20113;-72
2023/03/10 10:41:00;;;;;;;3.67;1.70;;;;;;;5.30;100.00;98716.16;5007260;28;20046;-70
2023/03/10 10:43:28;;;;;;;3.13;1.77;;;;;;;5.32;100.00;98719.41;4973207;28;20061;-72
2023/03/10 10:46:04;;;;;;;3.28;2.17;;;;;;;5.30;100.00;98721.34;5007007;28;20688;-71
2023/03/10 10:48:39;;;;;;;4.05;1.95;;;;;;;5.38;100.00;98707.53;4998409;28;20056;-73
2023/03/10 10:51:19;;;;;;;3.80;2.10;;;;;;;5.44;100.00;98717.28;4997118;28;20257;-72
2023/03/10 10:53:46;;;;;;;3.20;2.13;;;;;;;5.44;100.00;98709.47;4998638;28;20081;-73
2023/03/10 10:56:17;;;;;;;4.10;2.30;;;;;;;5.48;100.00;98708.16;5008210;28;20056;-73
2023/03/10 10:59:03;;;;;;;3.13;2.13;;;;;;;5.51;100.00;98713.06;5000031;28;20027;-72
2023/03/10 11:01:53;;;;;;;5.97;2.25;;;;;;;5.52;100.00;98714.66;5003660;28;20604;-73
2023/03/10 11:04:21;;;;;;;5.25;2.60;;;;;;;5.44;100.00;98714.69;5012615;28;20080;-72
2023/03/10 11:06:48;;;;;;;3.08;2.45;;;;;;;5.46;100.00;98715.31;5005039;28;20511;-73
2023/03/10 11:09:21;;;;;;;3.22;2.30;;;;;;;5.45;100.00;98710.28;5024851;28;20042;-72
2023/03/10 11:12:19;;;;;;;6.35;2.10;;;;;;;5.46;100.00;98701.53;4989632;28;20086;-72
2023/03/10 11:15:06;;;;;;;5.55;2.60;;;;;;;5.38;100.00;98707.53;4992488;28;20058;-72
2023/03/10 11:17:35;;;;;;;4.47;2.58;;;;;;;5.35;100.00;98705.25;4999805;28;20049;-72
2023/03/10 11:20:28;;;;;;;3.50;2.45;;;;;;;5.34;100.00;98708.84;5000796;28;20045;-72
2023/03/10 11:23:11;;;;;;;3.50;2.47;;;;;;;5.32;100.00;98709.00;5015297;28;20054;-72
2023/03/10 11:25:45;;;;;;;3.40;2.13;;;;;;;5.33;100.00;98713.25;5008019;28;20041;-73
2023/03/10 11:28:45;;;;;;;3.60;2.50;;;;;;;5.35;100.00;98692.25;5008219;28;20106;-72
2023/03/10 11:31:35;;;;;;;2.97;2.15;;;;;;;5.39;100.00;98706.56;4989845;28;20137;-72
2023/03/10 11:34:22;;;;;;;3.10;2.35;;;;;;;5.40;100.00;98709.97;5000229;28;20065;-72
2023/03/10 11:37:13;;;;;;;3.67;2.15;;;;;;;5.42;100.00;98702.81;4996592;28;20049;-72
2023/03/10 11:40:10;;;;;;;2.95;1.90;;;;;;;5.40;100.00;98715.19;5003800;28;20700;-71
2023/03/10 11:42:50;;;;;;;3.90;2.40;;;;;;;5.31;100.00;98723.00;4984938;28;20046;-74
2023/03/10 11:45:32;;;;;;;4.50;2.25;;;;;;;5.27;100.00;98723.47;4991411;28;20038;-75
2023/03/10 11:48:22;;;;;;;4.50;2.28;;;;;;;5.21;100.00;98724.94;4990485;28;20425;-76